sensor_id;sensor_type;location;lat;lon;timestamp;pressure;altitude;pressure_sealevel;temperature;humidity
44920;BME280;30655;53.094;6.072;2022-07-29T00:01:31;102089.97;;;16.35;68.12
44920;BME280;30655;53.094;6.072;2022-07-29T00:04:25;102074.41;;;16.41;68.11
44920;BME280;30655;53.094;6.072;2022-07-29T00:13:56;102063.47;;;16.46;67.82
44920;BME280;30655;53.094;6.072;2022-07-29T00:24:08;102067.84;;;16.47;67.88
44920;BME280;30655;53.094;6.072;2022-07-29T00:54:10;101971.94;;;15.84;69.76
44920;BME280;30655;53.094;6.072;2022-07-29T00:56:54;102018.75;;;16.32;68.90
44920;BME280;30655;53.094;6.072;2022-07-29T00:59:57;101932.22;;;15.63;69.95
44920;BME280;30655;53.094;6.072;2022-07-29T01:02:38;101900.31;;;15.48;69.80
44920;BME280;30655;53.094;6.072;2022-07-29T01:05:17;102052.56;;;16.41;69.42
44920;BME280;30655;53.094;6.072;2022-07-29T01:08:20;101848.31;;;15.15;69.67
44920;BME280;30655;53.094;6.072;2022-07-29T01:11:05;101994.28;;;16.07;70.22
44920;BME280;30655;53.094;6.072;2022-07-29T01:14:43;101839.06;;;15.05;70.36
44920;BME280;30655;53.094;6.072;2022-07-29T01:17:29;101910.41;;;15.58;69.93
44920;BME280;30655;53.094;6.072;2022-07-29T01:21:07;101925.94;;;15.58;70.93
44920;BME280;30655;53.094;6.072;2022-07-29T01:30:57;102028.03;;;16.31;70.76
44920;BME280;30655;53.094;6.072;2022-07-29T01:33:58;102007.84;;;16.37;70.12
44920;BME280;30655;53.094;6.072;2022-07-29T01:36:57;101853.72;;;15.35;71.02
44920;BME280;30655;53.094;6.072;2022-07-29T01:39:49;101945.50;;;15.95;71.00
44920;BME280;30655;53.094;6.072;2022-07-29T01:42:41;101879.31;;;15.64;70.65
44920;BME280;30655;53.094;6.072;2022-07-29T01:45:44;101955.50;;;16.15;70.73
44920;BME280;30655;53.094;6.072;2022-07-29T01:52:19;101985.78;;;16.23;71.81
44920;BME280;30655;53.094;6.072;2022-07-29T02:02:19;101987.13;;;16.26;71.27
44920;BME280;30655;53.094;6.072;2022-07-29T02:05:25;101827.88;;;15.37;72.26
44920;BME280;30655;53.094;6.072;2022-07-29T02:18:28;101946.50;;;16.19;71.80
44920;BME280;30655;53.094;6.072;2022-07-29T02:21:28;101753.59;;;14.86;72.39
44920;BME280;30655;53.094;6.072;2022-07-29T02:24:34;101966.41;;;16.25;71.36
44920;BME280;30655;53.094;6.072;2022-07-29T02:27:58;101960.41;;;16.28;71.33
44920;BME280;30655;53.094;6.072;2022-07-29T02:30:35;101950.84;;;16.25;71.36
44920;BME280;30655;53.094;6.072;2022-07-29T02:33:25;101867.84;;;15.77;71.38
44920;BME280;30655;53.094;6.072;2022-07-29T02:36:12;101831.09;;;15.55;71.35
44920;BME280;30655;53.094;6.072;2022-07-29T02:38:46;101767.44;;;15.10;71.53
44920;BME280;30655;53.094;6.072;2022-07-29T02:41:58;101930.13;;;16.19;71.95
44920;BME280;30655;53.094;6.072;2022-07-29T02:44:54;101896.66;;;16.04;71.07
44920;BME280;30655;53.094;6.072;2022-07-29T02:51:32;101741.06;;;15.00;71.35
44920;BME280;30655;53.094;6.072;2022-07-29T03:28:55;101878.72;;;15.92;71.59
44920;BME280;30655;53.094;6.072;2022-07-29T03:32:03;101798.16;;;15.51;71.17
44920;BME280;30655;53.094;6.072;2022-07-29T03:34:58;101921.72;;;16.11;71.42
44920;BME280;30655;53.094;6.072;2022-07-29T03:37:56;101901.00;;;16.10;71.58
44920;BME280;30655;53.094;6.072;2022-07-29T03:43:51;101880.59;;;15.97;70.96
44920;BME280;30655;53.094;6.072;2022-07-29T03:57:04;101677.16;;;14.73;70.52
44920;BME280;30655;53.094;6.072;2022-07-29T04:10:20;101897.72;;;16.13;69.98
44920;BME280;30655;53.094;6.072;2022-07-29T04:13:00;101737.81;;;15.03;70.31
44920;BME280;30655;53.094;6.072;2022-07-29T04:15:40;101792.16;;;15.44;70.12
44920;BME280;30655;53.094;6.072;2022-07-29T04:18:35;101717.94;;;14.93;70.25
44920;BME280;30655;53.094;6.072;2022-07-29T04:21:32;101756.28;;;15.06;70.51
44920;BME280;30655;53.094;6.072;2022-07-29T04:24:16;101854.22;;;15.82;70.16
44920;BME280;30655;53.094;6.072;2022-07-29T04:27:17;101905.34;;;16.11;70.07
44920;BME280;30655;53.094;6.072;2022-07-29T04:30:13;101902.63;;;16.11;70.17
44920;BME280;30655;53.094;6.072;2022-07-29T04:33:27;101913.25;;;16.12;70.32
44920;BME280;30655;53.094;6.072;2022-07-29T04:36:07;101897.72;;;16.13;70.25
44920;BME280;30655;53.094;6.072;2022-07-29T04:42:37;101793.25;;;15.48;70.04
44920;BME280;30655;53.094;6.072;2022-07-29T04:48:56;101893.63;;;16.10;70.10
44920;BME280;30655;53.094;6.072;2022-07-29T04:51:39;101906.19;;;16.06;70.48
44920;BME280;30655;53.094;6.072;2022-07-29T04:54:34;101787.25;;;15.41;70.10
44920;BME280;30655;53.094;6.072;2022-07-29T05:05:05;101883.31;;;16.02;70.79
44920;BME280;30655;53.094;6.072;2022-07-29T05:08:18;101898.25;;;16.10;70.26
44920;BME280;30655;53.094;6.072;2022-07-29T05:11:02;101729.91;;;15.02;70.29
44920;BME280;30655;53.094;6.072;2022-07-29T05:16:30;101721.97;;;15.05;70.16
44920;BME280;30655;53.094;6.072;2022-07-29T05:18:59;101764.69;;;15.30;70.01
44920;BME280;30655;53.094;6.072;2022-07-29T05:21:30;101863.16;;;15.93;70.18
44920;BME280;30655;53.094;6.072;2022-07-29T05:23:59;101716.56;;;15.00;70.26
44920;BME280;30655;53.094;6.072;2022-07-29T05:26:42;101836.81;;;15.68;70.43
44920;BME280;30655;53.094;6.072;2022-07-29T05:29:23;101769.63;;;15.18;71.17
44920;BME280;30655;53.094;6.072;2022-07-29T05:32:14;101759.53;;;15.24;70.45
44920;BME280;30655;53.094;6.072;2022-07-29T05:38:39;101873.53;;;15.91;70.65
44920;BME280;30655;53.094;6.072;2022-07-29T05:44:48;101727.72;;;15.04;70.58
44920;BME280;30655;53.094;6.072;2022-07-29T05:47:24;101769.56;;;15.38;70.51
44920;BME280;30655;53.094;6.072;2022-07-29T05:49:54;101915.06;;;16.37;70.36
44920;BME280;30655;53.094;6.072;2022-07-29T05:52:30;101775.81;;;15.44;70.75
44920;BME280;30655;53.094;6.072;2022-07-29T05:55:29;101762.97;;;15.49;70.22
44920;BME280;30655;53.094;6.072;2022-07-29T05:58:00;101921.31;;;16.43;70.31
44920;BME280;30655;53.094;6.072;2022-07-29T06:00:35;101925.69;;;16.44;70.42
44920;BME280;30655;53.094;6.072;2022-07-29T06:04:00;101923.22;;;16.42;70.65
44920;BME280;30655;53.094;6.072;2022-07-29T06:13:22;101776.31;;;15.61;70.53
44920;BME280;30655;53.094;6.072;2022-07-29T06:16:06;101881.28;;;16.28;70.68
44920;BME280;30655;53.094;6.072;2022-07-29T06:18:48;101776.28;;;15.71;70.58
44920;BME280;30655;53.094;6.072;2022-07-29T06:21:31;101805.31;;;16.01;70.35
44920;BME280;30655;53.094;6.072;2022-07-29T06:24:30;101911.34;;;16.72;70.63
44920;BME280;30655;53.094;6.072;2022-07-29T06:27:18;101895.78;;;16.72;70.63
44920;BME280;30655;53.094;6.072;2022-07-29T06:30:06;101928.97;;;16.90;70.33
44920;BME280;30655;53.094;6.072;2022-07-29T06:36:07;101907.13;;;16.90;70.35
44920;BME280;30655;53.094;6.072;2022-07-29T06:56:21;101910.81;;;17.43;68.54
44920;BME280;30655;53.094;6.072;2022-07-29T06:58:51;101855.16;;;17.29;68.52
44920;BME280;30655;53.094;6.072;2022-07-29T07:19:31;101882.09;;;17.98;65.83
44920;BME280;30655;53.094;6.072;2022-07-29T07:22:22;101738.66;;;17.14;64.91
44920;BME280;30655;53.094;6.072;2022-07-29T07:53:07;101940.69;;;19.65;61.37
44920;BME280;30655;53.094;6.072;2022-07-29T07:54:25;101925.44;;;19.73;59.89
44920;BME280;30655;53.094;6.072;2022-07-29T08:48:05;101816.44;;;19.05;60.10
44920;BME280;30655;53.094;6.072;2022-07-29T08:50:43;101727.19;;;18.53;59.80
44920;BME280;30655;53.094;6.072;2022-07-29T09:07:11;101883.78;;;19.57;59.50
44920;BME280;30655;53.094;6.072;2022-07-29T09:13:57;101820.31;;;19.18;59.55
44920;BME280;30655;53.094;6.072;2022-07-29T09:16:53;101892.13;;;19.66;59.65
44920;BME280;30655;53.094;6.072;2022-07-29T09:19:54;101797.97;;;18.97;59.48
44920;BME280;30655;53.094;6.072;2022-07-29T09:22:29;101792.47;;;18.97;59.73
44920;BME280;30655;53.094;6.072;2022-07-29T09:25:44;101752.00;;;18.62;59.19
44920;BME280;30655;53.094;6.072;2022-07-29T09:35:57;101888.47;;;19.57;60.64
44920;BME280;30655;53.094;6.072;2022-07-29T09:39:07;101790.25;;;18.99;60.78
44920;BME280;30655;53.094;6.072;2022-07-29T09:45:35;101723.00;;;18.61;61.20
44920;BME280;30655;53.094;6.072;2022-07-29T09:48:26;101817.91;;;19.30;61.43
44920;BME280;30655;53.094;6.072;2022-07-29T09:51:59;101711.88;;;18.71;61.99
44920;BME280;30655;53.094;6.072;2022-07-29T09:55:24;101904.75;;;19.81;62.35
44920;BME280;30655;53.094;6.072;2022-07-29T09:58:27;101726.91;;;18.87;61.00
44920;BME280;30655;53.094;6.072;2022-07-29T10:04:54;101884.06;;;20.24;61.01
44920;BME280;30655;53.094;6.072;2022-07-29T10:14:28;101880.59;;;21.57;56.61
44920;BME280;30655;53.094;6.072;2022-07-29T10:41:53;101867.94;;;22.35;53.28
44920;BME280;30655;53.094;6.072;2022-07-29T10:44:40;101693.53;;;21.00;54.10
44920;BME280;30655;53.094;6.072;2022-07-29T10:47:19;101707.72;;;21.02;54.66
44920;BME280;30655;53.094;6.072;2022-07-29T10:53:10;101878.16;;;21.86;55.37
44920;BME280;30655;53.094;6.072;2022-07-29T10:55:49;101860.13;;;21.72;54.92
44920;BME280;30655;53.094;6.072;2022-07-29T10:58:35;101787.72;;;20.92;54.99
44920;BME280;30655;53.094;6.072;2022-07-29T11:01:30;101779.38;;;20.53;55.71
44920;BME280;30655;53.094;6.072;2022-07-29T11:04:06;101824.03;;;20.81;56.10
44920;BME280;30655;53.094;6.072;2022-07-29T11:07:09;101671.25;;;19.82;55.47
44920;BME280;30655;53.094;6.072;2022-07-29T11:09:49;101871.53;;;21.03;55.68
44920;BME280;30655;53.094;6.072;2022-07-29T11:37:30;101860.06;;;21.24;56.18
44920;BME280;30655;53.094;6.072;2022-07-29T12:17:30;101771.19;;;22.19;52.90
44920;BME280;30655;53.094;6.072;2022-07-29T12:20:13;101689.50;;;21.72;52.34
44920;BME280;30655;53.094;6.072;2022-07-29T12:22:46;101787.56;;;22.42;52.15
44920;BME280;30655;53.094;6.072;2022-07-29T12:25:18;101852.25;;;22.79;51.79
44920;BME280;30655;53.094;6.072;2022-07-29T12:28:23;101797.94;;;22.53;51.29
44920;BME280;30655;53.094;6.072;2022-07-29T12:30:53;101793.09;;;22.50;52.45
44920;BME280;30655;53.094;6.072;2022-07-29T12:33:24;101765.19;;;22.43;52.19
44920;BME280;30655;53.094;6.072;2022-07-29T12:35:59;101780.44;;;22.66;52.06
44920;BME280;30655;53.094;6.072;2022-07-29T12:38:43;101753.22;;;22.56;51.89
44920;BME280;30655;53.094;6.072;2022-07-29T12:41:11;101837.19;;;23.40;51.73
44920;BME280;30655;53.094;6.072;2022-07-29T12:43:52;101749.88;;;23.06;51.68
44920;BME280;30655;53.094;6.072;2022-07-29T12:46:28;101717.44;;;23.03;51.46
44920;BME280;30655;53.094;6.072;2022-07-29T12:49:15;101856.53;;;24.07;49.05
44920;BME280;30655;53.094;6.072;2022-07-29T12:52:30;101696.53;;;23.31;49.62
44920;BME280;30655;53.094;6.072;2022-07-29T12:55:40;101852.28;;;24.39;49.48
44920;BME280;30655;53.094;6.072;2022-07-29T12:58:39;101778.00;;;23.96;48.86
44920;BME280;30655;53.094;6.072;2022-07-29T13:01:10;101838.28;;;24.65;48.60
44920;BME280;30655;53.094;6.072;2022-07-29T13:04:55;101751.03;;;24.55;46.47
44920;BME280;30655;53.094;6.072;2022-07-29T13:07:34;101802.06;;;25.36;45.02
44920;BME280;30655;53.094;6.072;2022-07-29T13:10:35;101744.06;;;25.27;44.57
44920;BME280;30655;53.094;6.072;2022-07-29T13:13:15;101751.56;;;25.39;44.73
44920;BME280;30655;53.094;6.072;2022-07-29T13:15:46;101722.75;;;25.40;44.82
44920;BME280;30655;53.094;6.072;2022-07-29T13:18:37;101822.81;;;26.39;43.82
44920;BME280;30655;53.094;6.072;2022-07-29T13:21:19;101691.91;;;26.05;43.84
44920;BME280;30655;53.094;6.072;2022-07-29T13:24:10;101824.31;;;27.51;41.58
44920;BME280;30655;53.094;6.072;2022-07-29T13:27:07;101766.69;;;27.48;40.31
44920;BME280;30655;53.094;6.072;2022-07-29T13:30:14;101827.63;;;28.23;39.24
44920;BME280;30655;53.094;6.072;2022-07-29T13:33:34;101829.03;;;28.52;39.49
44920;BME280;30655;53.094;6.072;2022-07-29T13:36:45;101680.91;;;27.78;38.45
44920;BME280;30655;53.094;6.072;2022-07-29T13:39:38;101815.06;;;28.67;38.16
44920;BME280;30655;53.094;6.072;2022-07-29T13:46:04;101821.03;;;28.69;37.86
44920;BME280;30655;53.094;6.072;2022-07-29T13:48:38;101694.78;;;28.13;39.46
44920;BME280;30655;53.094;6.072;2022-07-29T13:51:12;101716.31;;;28.58;38.78
44920;BME280;30655;53.094;6.072;2022-07-29T13:53:39;101814.28;;;29.55;37.34
44920;BME280;30655;53.094;6.072;2022-07-29T13:59:32;101739.25;;;28.93;37.59
44920;BME280;30655;53.094;6.072;2022-07-29T14:03:00;101745.97;;;29.15;36.64
44920;BME280;30655;53.094;6.072;2022-07-29T14:05:47;101722.03;;;29.10;35.64
44920;BME280;30655;53.094;6.072;2022-07-29T14:08:42;101814.03;;;29.40;38.09
44920;BME280;30655;53.094;6.072;2022-07-29T14:11:33;101819.47;;;29.56;37.71
44920;BME280;30655;53.094;6.072;2022-07-29T14:17:36;101692.06;;;28.78;36.76
44920;BME280;30655;53.094;6.072;2022-07-29T14:23:35;101815.03;;;29.51;34.24
44920;BME280;30655;53.094;6.072;2022-07-29T14:26:31;101735.59;;;29.12;34.06
44920;BME280;30655;53.094;6.072;2022-07-29T14:32:35;101811.50;;;29.81;34.24
44920;BME280;30655;53.094;6.072;2022-07-29T14:35:18;101808.09;;;29.91;34.84
44920;BME280;30655;53.094;6.072;2022-07-29T14:38:29;101680.00;;;29.19;33.79
44920;BME280;30655;53.094;6.072;2022-07-29T14:44:51;101670.72;;;29.34;33.97
44920;BME280;30655;53.094;6.072;2022-07-29T14:47:57;101655.50;;;29.28;34.31
44920;BME280;30655;53.094;6.072;2022-07-29T14:50:27;101745.78;;;29.80;34.46
44920;BME280;30655;53.094;6.072;2022-07-29T14:52:57;101778.44;;;29.79;34.71
44920;BME280;30655;53.094;6.072;2022-07-29T14:55:47;101818.16;;;29.99;34.55
44920;BME280;30655;53.094;6.072;2022-07-29T14:58:34;101812.59;;;29.99;34.21
44920;BME280;30655;53.094;6.072;2022-07-29T15:01:34;101696.59;;;29.12;34.49
44920;BME280;30655;53.094;6.072;2022-07-29T15:04:15;101807.03;;;29.73;34.75
44920;BME280;30655;53.094;6.072;2022-07-29T15:06:42;101692.44;;;28.99;35.09
44920;BME280;30655;53.094;6.072;2022-07-29T15:09:14;101812.91;;;29.94;35.21
44920;BME280;30655;53.094;6.072;2022-07-29T15:11:52;101800.47;;;30.14;33.59
44920;BME280;30655;53.094;6.072;2022-07-29T15:14:31;101814.94;;;30.23;33.55
44920;BME280;30655;53.094;6.072;2022-07-29T15:17:08;101712.50;;;29.61;34.16
44920;BME280;30655;53.094;6.072;2022-07-29T15:19:37;101680.56;;;29.55;33.60
44920;BME280;30655;53.094;6.072;2022-07-29T15:22:18;101705.53;;;29.74;34.15
44920;BME280;30655;53.094;6.072;2022-07-29T15:25:09;101747.94;;;30.20;33.30
44920;BME280;30655;53.094;6.072;2022-07-29T15:27:45;101647.34;;;29.69;33.38
44920;BME280;30655;53.094;6.072;2022-07-29T15:30:20;101788.91;;;30.46;34.43
44920;BME280;30655;53.094;6.072;2022-07-29T15:33:10;101736.78;;;30.20;33.75
44920;BME280;30655;53.094;6.072;2022-07-29T15:35:38;101796.44;;;30.42;33.81
44920;BME280;30655;53.094;6.072;2022-07-29T15:38:08;101796.88;;;30.44;33.92
44920;BME280;30655;53.094;6.072;2022-07-29T15:40:40;101727.03;;;30.03;33.88
44920;BME280;30655;53.094;6.072;2022-07-29T15:43:07;101740.22;;;30.06;34.03
44920;BME280;30655;53.094;6.072;2022-07-29T15:45:48;101792.81;;;30.38;33.01
44920;BME280;30655;53.094;6.072;2022-07-29T15:48:38;101788.78;;;30.35;33.17
44920;BME280;30655;53.094;6.072;2022-07-29T15:51:07;101783.41;;;30.19;32.68
44920;BME280;30655;53.094;6.072;2022-07-29T15:53:37;101718.91;;;29.65;32.88
44920;BME280;30655;53.094;6.072;2022-07-29T15:56:04;101699.66;;;29.52;32.43
44920;BME280;30655;53.094;6.072;2022-07-29T15:58:37;101794.22;;;29.94;31.45
44920;BME280;30655;53.094;6.072;2022-07-29T16:01:16;101768.53;;;29.82;32.42
44920;BME280;30655;53.094;6.072;2022-07-29T16:03:50;101686.13;;;29.28;31.63
44920;BME280;30655;53.094;6.072;2022-07-29T16:06:20;101724.88;;;29.63;32.08
44920;BME280;30655;53.094;6.072;2022-07-29T16:08:50;101777.56;;;29.98;32.60
44920;BME280;30655;53.094;6.072;2022-07-29T16:11:17;101779.69;;;30.08;32.28
44920;BME280;30655;53.094;6.072;2022-07-29T16:13:44;101608.47;;;28.97;32.11
44920;BME280;30655;53.094;6.072;2022-07-29T16:16:13;101665.13;;;29.08;32.29
44920;BME280;30655;53.094;6.072;2022-07-29T16:18:46;101699.16;;;29.24;32.90
44920;BME280;30655;53.094;6.072;2022-07-29T16:21:15;101631.31;;;28.60;32.64
44920;BME280;30655;53.094;6.072;2022-07-29T16:24:08;101665.78;;;28.56;33.08
44920;BME280;30655;53.094;6.072;2022-07-29T16:27:08;101635.50;;;28.09;33.46
44920;BME280;30655;53.094;6.072;2022-07-29T16:29:40;101777.28;;;28.66;33.84
44920;BME280;30655;53.094;6.072;2022-07-29T16:32:21;101744.88;;;28.36;33.88
44920;BME280;30655;53.094;6.072;2022-07-29T16:35:26;101626.16;;;27.59;33.38
44920;BME280;30655;53.094;6.072;2022-07-29T16:38:14;101781.97;;;28.62;33.11
44920;BME280;30655;53.094;6.072;2022-07-29T16:41:15;101617.47;;;27.45;33.26
44920;BME280;30655;53.094;6.072;2022-07-29T16:43:58;101617.31;;;27.54;33.50
44920;BME280;30655;53.094;6.072;2022-07-29T16:46:28;101746.13;;;28.38;34.20
44920;BME280;30655;53.094;6.072;2022-07-29T16:49:11;101755.03;;;28.47;33.65
44920;BME280;30655;53.094;6.072;2022-07-29T16:51:46;101593.84;;;27.51;33.86
44920;BME280;30655;53.094;6.072;2022-07-29T16:54:32;101606.09;;;27.50;33.61
44920;BME280;30655;53.094;6.072;2022-07-29T16:57:13;101722.47;;;28.09;34.00
44920;BME280;30655;53.094;6.072;2022-07-29T16:59:45;101694.88;;;27.81;34.70
44920;BME280;30655;53.094;6.072;2022-07-29T17:02:14;101624.78;;;27.34;34.84
44920;BME280;30655;53.094;6.072;2022-07-29T17:04:49;101779.34;;;28.31;34.30
44920;BME280;30655;53.094;6.072;2022-07-29T17:07:21;101712.00;;;27.83;33.89
44920;BME280;30655;53.094;6.072;2022-07-29T17:10:00;101771.53;;;28.02;33.88
44920;BME280;30655;53.094;6.072;2022-07-29T17:12:31;101782.59;;;27.98;34.54
44920;BME280;30655;53.094;6.072;2022-07-29T17:15:06;101746.88;;;27.65;34.34
44920;BME280;30655;53.094;6.072;2022-07-29T17:18:05;101619.28;;;26.55;33.93
44920;BME280;30655;53.094;6.072;2022-07-29T17:20:40;101777.56;;;27.53;34.91
44920;BME280;30655;53.094;6.072;2022-07-29T17:23:19;101777.28;;;27.42;35.18
44920;BME280;30655;53.094;6.072;2022-07-29T17:26:16;101786.06;;;27.29;35.04
44920;BME280;30655;53.094;6.072;2022-07-29T17:28:46;101604.78;;;26.03;34.96
44920;BME280;30655;53.094;6.072;2022-07-29T17:31:23;101745.63;;;26.84;35.88
44920;BME280;30655;53.094;6.072;2022-07-29T17:33:50;101691.63;;;26.35;37.89
44920;BME280;30655;53.094;6.072;2022-07-29T17:36:17;101778.78;;;26.93;38.78
44920;BME280;30655;53.094;6.072;2022-07-29T17:38:51;101692.56;;;26.27;40.10
44920;BME280;30655;53.094;6.072;2022-07-29T17:41:23;101737.81;;;26.31;41.12
44920;BME280;30655;53.094;6.072;2022-07-29T17:43:56;101641.59;;;25.76;41.36
44920;BME280;30655;53.094;6.072;2022-07-29T17:46:29;101626.19;;;25.50;41.16
44920;BME280;30655;53.094;6.072;2022-07-29T17:48:57;101719.63;;;26.05;41.63
44920;BME280;30655;53.094;6.072;2022-07-29T17:51:29;101629.31;;;25.37;42.36
44920;BME280;30655;53.094;6.072;2022-07-29T17:53:59;101741.28;;;25.88;43.11
44920;BME280;30655;53.094;6.072;2022-07-29T17:56:29;101723.41;;;25.73;43.30
44920;BME280;30655;53.094;6.072;2022-07-29T17:58:57;101738.28;;;25.81;42.85
44920;BME280;30655;53.094;6.072;2022-07-29T18:01:28;101791.41;;;26.10;43.55
44920;BME280;30655;53.094;6.072;2022-07-29T18:03:55;101748.19;;;25.82;43.53
44920;BME280;30655;53.094;6.072;2022-07-29T18:06:51;101793.28;;;26.06;43.77
44920;BME280;30655;53.094;6.072;2022-07-29T18:09:20;101797.09;;;26.02;43.51
44920;BME280;30655;53.094;6.072;2022-07-29T18:11:55;101794.47;;;25.93;44.06
44920;BME280;30655;53.094;6.072;2022-07-29T18:14:36;101751.09;;;25.61;44.01
44920;BME280;30655;53.094;6.072;2022-07-29T18:17:36;101613.75;;;24.71;44.57
44920;BME280;30655;53.094;6.072;2022-07-29T18:20:23;101692.25;;;24.91;45.04
44920;BME280;30655;53.094;6.072;2022-07-29T18:23:03;101606.91;;;24.20;46.13
44920;BME280;30655;53.094;6.072;2022-07-29T18:25:55;101623.19;;;24.13;47.21
44920;BME280;30655;53.094;6.072;2022-07-29T18:32:14;101762.09;;;24.88;46.68
44920;BME280;30655;53.094;6.072;2022-07-29T18:35:05;101767.13;;;24.86;46.96
44920;BME280;30655;53.094;6.072;2022-07-29T18:51:07;101806.97;;;24.73;49.55
44920;BME280;30655;53.094;6.072;2022-07-29T18:53:40;101732.03;;;24.12;48.40
44920;BME280;30655;53.094;6.072;2022-07-29T18:56:20;101810.13;;;24.63;48.75
44920;BME280;30655;53.094;6.072;2022-07-29T18:58:51;101796.50;;;24.46;49.00
44920;BME280;30655;53.094;6.072;2022-07-29T19:01:21;101772.25;;;24.30;49.50
44920;BME280;30655;53.094;6.072;2022-07-29T19:04:04;101696.81;;;23.68;49.72
44920;BME280;30655;53.094;6.072;2022-07-29T19:06:39;101826.91;;;24.46;49.66
44920;BME280;30655;53.094;6.072;2022-07-29T19:09:11;101692.72;;;23.44;50.16
44920;BME280;30655;53.094;6.072;2022-07-29T19:11:49;101827.94;;;24.32;50.23
44920;BME280;30655;53.094;6.072;2022-07-29T19:14:23;101780.75;;;23.96;50.21
44920;BME280;30655;53.094;6.072;2022-07-29T19:16:54;101761.53;;;23.79;50.56
44920;BME280;30655;53.094;6.072;2022-07-29T19:19:22;101719.84;;;23.51;50.85
44920;BME280;30655;53.094;6.072;2022-07-29T19:22:03;101687.34;;;23.18;51.33
44920;BME280;30655;53.094;6.072;2022-07-29T19:24:30;101776.28;;;23.53;51.90
44920;BME280;30655;53.094;6.072;2022-07-29T19:27:06;101736.84;;;23.15;52.55
44920;BME280;30655;53.094;6.072;2022-07-29T19:29:38;101787.38;;;23.36;52.83
44920;BME280;30655;53.094;6.072;2022-07-29T19:32:17;101846.13;;;23.45;54.08
44920;BME280;30655;53.094;6.072;2022-07-29T19:34:51;101764.38;;;22.77;54.50
44920;BME280;30655;53.094;6.072;2022-07-29T19:37:31;101846.22;;;23.11;55.08
44920;BME280;30655;53.094;6.072;2022-07-29T19:40:01;101742.53;;;22.29;55.84
44920;BME280;30655;53.094;6.072;2022-07-29T19:42:36;101817.38;;;22.65;55.88
44920;BME280;30655;53.094;6.072;2022-07-29T19:45:56;101850.81;;;22.81;56.30
44920;BME280;30655;53.094;6.072;2022-07-29T21:20:16;101778.50;;;20.66;64.95
44920;BME280;30655;53.094;6.072;2022-07-29T21:23:16;101839.19;;;21.00;65.12
44920;BME280;30655;53.094;6.072;2022-07-29T22:22:08;101892.50;;;20.55;64.26
